Sunburst, Montana
Current Conditions -  °F | °C
As of 1:56 AM on Friday 28 Nov 2014 (Local Time) from KCTB Reporting Station
Clear Clear  
Wind Chill: 32°   Ceiling: Unl
Heat Index: 41°   Visibility: 10mi
Dew Point: 35°   Wind: 20mph
Humidity: 79%   Direction: 250°WSW
Pressure: 29.57"   Gusts: NA
Location:  48.88°N, 111.91°W
Report Text: KCTB 280856Z AUTO 25017KT 10SM CLR 05/02 A2957 RMK AO2 SLP015 T00500017 56012 $
Loading
Personal Weather Stations






























Interactive Weather Map New forecast layout! Learn more

10-Day Weather Forecast

Advertisements
Track Severe Weather on mobile